sensor_id;sensor_type;location;lat;lon;timestamp;P1;durP1;ratioP1;P2;durP2;ratioP2
16480;SDS011;44634;54.110;12.138;2023-02-15T00:01:48;47.27;;;19.27;;
16480;SDS011;44634;54.110;12.138;2023-02-15T00:04:17;49.33;;;18.53;;
16480;SDS011;44634;54.110;12.138;2023-02-15T00:06:47;52.60;;;20.13;;
16480;SDS011;44634;54.110;12.138;2023-02-15T00:09:15;47.70;;;19.23;;
16480;SDS011;44634;54.110;12.138;2023-02-15T00:11:43;46.23;;;20.20;;
16480;SDS011;44634;54.110;12.138;2023-02-15T00:14:17;46.53;;;20.20;;
16480;SDS011;44634;54.110;12.138;2023-02-15T00:16:46;43.97;;;18.80;;
16480;SDS011;44634;54.110;12.138;2023-02-15T00:19:15;50.60;;;19.53;;
16480;SDS011;44634;54.110;12.138;2023-02-15T00:21:44;50.30;;;18.47;;
16480;SDS011;44634;54.110;12.138;2023-02-15T00:24:14;54.27;;;20.80;;
16480;SDS011;44634;54.110;12.138;2023-02-15T00:26:43;42.67;;;18.67;;
16480;SDS011;44634;54.110;12.138;2023-02-15T00:29:12;46.73;;;20.07;;
16480;SDS011;44634;54.110;12.138;2023-02-15T00:31:41;48.20;;;19.60;;
16480;SDS011;44634;54.110;12.138;2023-02-15T00:34:10;47.53;;;19.13;;
16480;SDS011;44634;54.110;12.138;2023-02-15T00:36:39;49.10;;;18.70;;
16480;SDS011;44634;54.110;12.138;2023-02-15T00:39:07;44.73;;;18.73;;
16480;SDS011;44634;54.110;12.138;2023-02-15T00:41:37;51.33;;;20.80;;
16480;SDS011;44634;54.110;12.138;2023-02-15T00:44:06;50.10;;;21.07;;
16480;SDS011;44634;54.110;12.138;2023-02-15T00:46:34;48.43;;;20.67;;
16480;SDS011;44634;54.110;12.138;2023-02-15T00:49:03;45.50;;;18.70;;
16480;SDS011;44634;54.110;12.138;2023-02-15T00:51:31;52.23;;;21.60;;
16480;SDS011;44634;54.110;12.138;2023-02-15T00:54:00;53.60;;;21.73;;
16480;SDS011;44634;54.110;12.138;2023-02-15T00:56:28;49.07;;;19.90;;
16480;SDS011;44634;54.110;12.138;2023-02-15T00:58:57;56.93;;;21.17;;
16480;SDS011;44634;54.110;12.138;2023-02-15T01:01:25;48.23;;;19.70;;
16480;SDS011;44634;54.110;12.138;2023-02-15T01:03:53;52.37;;;21.27;;
16480;SDS011;44634;54.110;12.138;2023-02-15T01:06:21;50.90;;;20.73;;
16480;SDS011;44634;54.110;12.138;2023-02-15T01:08:48;50.67;;;21.13;;
16480;SDS011;44634;54.110;12.138;2023-02-15T01:11:17;50.43;;;19.03;;
16480;SDS011;44634;54.110;12.138;2023-02-15T01:13:48;46.53;;;19.73;;
16480;SDS011;44634;54.110;12.138;2023-02-15T01:16:18;60.50;;;19.67;;
16480;SDS011;44634;54.110;12.138;2023-02-15T01:18:46;52.30;;;20.60;;
16480;SDS011;44634;54.110;12.138;2023-02-15T01:21:15;53.33;;;20.37;;
16480;SDS011;44634;54.110;12.138;2023-02-15T01:23:45;47.50;;;20.03;;
16480;SDS011;44634;54.110;12.138;2023-02-15T01:26:13;54.73;;;22.00;;
16480;SDS011;44634;54.110;12.138;2023-02-15T01:28:41;47.20;;;20.87;;
16480;SDS011;44634;54.110;12.138;2023-02-15T01:31:10;49.03;;;21.27;;
16480;SDS011;44634;54.110;12.138;2023-02-15T01:33:40;50.10;;;21.50;;
16480;SDS011;44634;54.110;12.138;2023-02-15T01:36:09;58.23;;;22.20;;
16480;SDS011;44634;54.110;12.138;2023-02-15T01:38:37;51.57;;;20.67;;
16480;SDS011;44634;54.110;12.138;2023-02-15T01:41:06;50.23;;;20.70;;
16480;SDS011;44634;54.110;12.138;2023-02-15T01:43:50;50.20;;;20.73;;
16480;SDS011;44634;54.110;12.138;2023-02-15T01:46:22;54.00;;;20.57;;
16480;SDS011;44634;54.110;12.138;2023-02-15T01:48:54;53.13;;;20.73;;
16480;SDS011;44634;54.110;12.138;2023-02-15T01:51:27;55.73;;;20.43;;
16480;SDS011;44634;54.110;12.138;2023-02-15T01:53:58;46.33;;;19.93;;
16480;SDS011;44634;54.110;12.138;2023-02-15T01:56:29;55.37;;;22.77;;
16480;SDS011;44634;54.110;12.138;2023-02-15T01:59:02;54.50;;;21.23;;
16480;SDS011;44634;54.110;12.138;2023-02-15T02:01:35;53.43;;;21.17;;
16480;SDS011;44634;54.110;12.138;2023-02-15T02:04:07;58.57;;;23.20;;
16480;SDS011;44634;54.110;12.138;2023-02-15T02:06:40;52.57;;;20.40;;
16480;SDS011;44634;54.110;12.138;2023-02-15T02:09:08;51.50;;;22.57;;
16480;SDS011;44634;54.110;12.138;2023-02-15T02:11:36;50.13;;;21.97;;
16480;SDS011;44634;54.110;12.138;2023-02-15T02:14:06;52.90;;;20.77;;
16480;SDS011;44634;54.110;12.138;2023-02-15T02:16:36;52.87;;;21.20;;
16480;SDS011;44634;54.110;12.138;2023-02-15T02:22:18;43.80;;;20.93;;
16480;SDS011;44634;54.110;12.138;2023-02-15T02:25:12;56.30;;;22.73;;
16480;SDS011;44634;54.110;12.138;2023-02-15T02:28:01;54.90;;;23.43;;
16480;SDS011;44634;54.110;12.138;2023-02-15T02:30:55;52.77;;;21.40;;
16480;SDS011;44634;54.110;12.138;2023-02-15T02:33:44;57.43;;;22.43;;
16480;SDS011;44634;54.110;12.138;2023-02-15T02:36:22;54.73;;;22.93;;
16480;SDS011;44634;54.110;12.138;2023-02-15T02:39:03;60.67;;;22.83;;
16480;SDS011;44634;54.110;12.138;2023-02-15T02:41:38;56.73;;;23.90;;
16480;SDS011;44634;54.110;12.138;2023-02-15T02:44:18;57.00;;;23.20;;
16480;SDS011;44634;54.110;12.138;2023-02-15T02:46:50;57.90;;;23.80;;
16480;SDS011;44634;54.110;12.138;2023-02-15T02:49:32;54.37;;;20.33;;
16480;SDS011;44634;54.110;12.138;2023-02-15T02:52:03;49.00;;;22.00;;
16480;SDS011;44634;54.110;12.138;2023-02-15T02:54:33;57.97;;;22.10;;
16480;SDS011;44634;54.110;12.138;2023-02-15T02:57:03;57.30;;;23.53;;
16480;SDS011;44634;54.110;12.138;2023-02-15T02:59:36;49.27;;;21.90;;
16480;SDS011;44634;54.110;12.138;2023-02-15T03:02:08;57.13;;;22.83;;
16480;SDS011;44634;54.110;12.138;2023-02-15T03:04:41;63.27;;;22.40;;
16480;SDS011;44634;54.110;12.138;2023-02-15T03:07:14;57.07;;;22.33;;
16480;SDS011;44634;54.110;12.138;2023-02-15T03:09:48;60.43;;;22.27;;
16480;SDS011;44634;54.110;12.138;2023-02-15T03:12:19;60.73;;;23.47;;
16480;SDS011;44634;54.110;12.138;2023-02-15T03:14:49;60.40;;;22.23;;
16480;SDS011;44634;54.110;12.138;2023-02-15T03:17:21;55.93;;;21.70;;
16480;SDS011;44634;54.110;12.138;2023-02-15T03:19:52;63.80;;;21.63;;
16480;SDS011;44634;54.110;12.138;2023-02-15T03:22:25;61.20;;;22.70;;
16480;SDS011;44634;54.110;12.138;2023-02-15T03:24:56;60.67;;;22.20;;
16480;SDS011;44634;54.110;12.138;2023-02-15T03:27:30;55.03;;;22.23;;
16480;SDS011;44634;54.110;12.138;2023-02-15T03:30:00;60.93;;;23.60;;
16480;SDS011;44634;54.110;12.138;2023-02-15T03:32:30;52.23;;;21.40;;
16480;SDS011;44634;54.110;12.138;2023-02-15T03:35:03;55.27;;;23.47;;
16480;SDS011;44634;54.110;12.138;2023-02-15T03:37:32;60.63;;;23.20;;
16480;SDS011;44634;54.110;12.138;2023-02-15T03:40:06;50.90;;;20.47;;
16480;SDS011;44634;54.110;12.138;2023-02-15T03:42:58;63.13;;;23.57;;
16480;SDS011;44634;54.110;12.138;2023-02-15T03:45:30;57.37;;;22.60;;
16480;SDS011;44634;54.110;12.138;2023-02-15T03:48:00;61.43;;;25.17;;
16480;SDS011;44634;54.110;12.138;2023-02-15T03:50:31;63.07;;;22.57;;
16480;SDS011;44634;54.110;12.138;2023-02-15T03:53:21;60.80;;;21.70;;
16480;SDS011;44634;54.110;12.138;2023-02-15T03:55:53;58.87;;;23.80;;
16480;SDS011;44634;54.110;12.138;2023-02-15T03:58:22;67.33;;;23.17;;
16480;SDS011;44634;54.110;12.138;2023-02-15T04:01:10;58.43;;;21.57;;
16480;SDS011;44634;54.110;12.138;2023-02-15T04:03:59;62.80;;;23.33;;
16480;SDS011;44634;54.110;12.138;2023-02-15T04:06:32;54.43;;;21.93;;
16480;SDS011;44634;54.110;12.138;2023-02-15T04:09:00;61.37;;;22.57;;
16480;SDS011;44634;54.110;12.138;2023-02-15T04:11:48;63.83;;;22.57;;
16480;SDS011;44634;54.110;12.138;2023-02-15T04:14:15;60.47;;;21.80;;
16480;SDS011;44634;54.110;12.138;2023-02-15T04:17:02;59.57;;;23.07;;
16480;SDS011;44634;54.110;12.138;2023-02-15T04:19:32;59.87;;;22.27;;
16480;SDS011;44634;54.110;12.138;2023-02-15T04:22:19;58.07;;;21.97;;
16480;SDS011;44634;54.110;12.138;2023-02-15T04:25:05;60.73;;;24.33;;
16480;SDS011;44634;54.110;12.138;2023-02-15T04:27:40;59.63;;;22.00;;
16480;SDS011;44634;54.110;12.138;2023-02-15T04:30:09;64.63;;;23.70;;
16480;SDS011;44634;54.110;12.138;2023-02-15T04:32:39;56.83;;;22.57;;
16480;SDS011;44634;54.110;12.138;2023-02-15T04:35:07;60.50;;;23.73;;
16480;SDS011;44634;54.110;12.138;2023-02-15T04:37:37;63.03;;;22.77;;
16480;SDS011;44634;54.110;12.138;2023-02-15T04:40:05;64.67;;;23.80;;
16480;SDS011;44634;54.110;12.138;2023-02-15T04:42:34;91.57;;;34.30;;
16480;SDS011;44634;54.110;12.138;2023-02-15T04:45:02;77.30;;;30.53;;
16480;SDS011;44634;54.110;12.138;2023-02-15T04:47:31;78.80;;;29.20;;
16480;SDS011;44634;54.110;12.138;2023-02-15T04:49:58;63.57;;;23.93;;
16480;SDS011;44634;54.110;12.138;2023-02-15T04:52:26;69.33;;;25.63;;
16480;SDS011;44634;54.110;12.138;2023-02-15T04:54:55;54.43;;;21.83;;
16480;SDS011;44634;54.110;12.138;2023-02-15T04:57:23;54.10;;;22.67;;
16480;SDS011;44634;54.110;12.138;2023-02-15T04:59:51;59.63;;;22.73;;
16480;SDS011;44634;54.110;12.138;2023-02-15T05:02:19;65.10;;;23.23;;
16480;SDS011;44634;54.110;12.138;2023-02-15T05:04:46;62.97;;;23.13;;
16480;SDS011;44634;54.110;12.138;2023-02-15T05:07:14;67.10;;;23.17;;
16480;SDS011;44634;54.110;12.138;2023-02-15T05:09:42;70.00;;;23.80;;
16480;SDS011;44634;54.110;12.138;2023-02-15T05:12:11;62.90;;;23.23;;
16480;SDS011;44634;54.110;12.138;2023-02-15T05:14:39;57.77;;;22.43;;
16480;SDS011;44634;54.110;12.138;2023-02-15T05:17:06;61.27;;;23.37;;
16480;SDS011;44634;54.110;12.138;2023-02-15T05:19:34;67.33;;;23.00;;
16480;SDS011;44634;54.110;12.138;2023-02-15T05:22:02;50.10;;;22.37;;
16480;SDS011;44634;54.110;12.138;2023-02-15T05:24:29;60.33;;;23.10;;
16480;SDS011;44634;54.110;12.138;2023-02-15T05:27:16;59.67;;;21.87;;
16480;SDS011;44634;54.110;12.138;2023-02-15T05:30:02;60.57;;;22.80;;
16480;SDS011;44634;54.110;12.138;2023-02-15T05:32:30;75.00;;;22.43;;
16480;SDS011;44634;54.110;12.138;2023-02-15T05:34:58;59.80;;;21.43;;
16480;SDS011;44634;54.110;12.138;2023-02-15T05:37:26;72.87;;;26.57;;
16480;SDS011;44634;54.110;12.138;2023-02-15T05:39:53;68.83;;;25.30;;
16480;SDS011;44634;54.110;12.138;2023-02-15T05:42:22;63.60;;;23.40;;
16480;SDS011;44634;54.110;12.138;2023-02-15T05:44:50;59.83;;;22.80;;
16480;SDS011;44634;54.110;12.138;2023-02-15T05:47:18;58.43;;;23.17;;
16480;SDS011;44634;54.110;12.138;2023-02-15T05:49:45;61.27;;;22.50;;
16480;SDS011;44634;54.110;12.138;2023-02-15T05:52:13;54.83;;;20.97;;
16480;SDS011;44634;54.110;12.138;2023-02-15T05:54:41;66.27;;;22.50;;
16480;SDS011;44634;54.110;12.138;2023-02-15T05:57:09;57.50;;;22.07;;
16480;SDS011;44634;54.110;12.138;2023-02-15T05:59:38;55.23;;;21.67;;
16480;SDS011;44634;54.110;12.138;2023-02-15T06:02:05;63.47;;;22.57;;
16480;SDS011;44634;54.110;12.138;2023-02-15T06:04:33;59.63;;;22.40;;
16480;SDS011;44634;54.110;12.138;2023-02-15T06:07:01;55.53;;;21.87;;
16480;SDS011;44634;54.110;12.138;2023-02-15T06:09:29;52.40;;;19.40;;
16480;SDS011;44634;54.110;12.138;2023-02-15T06:11:56;52.13;;;20.07;;
16480;SDS011;44634;54.110;12.138;2023-02-15T06:14:24;62.53;;;21.17;;
16480;SDS011;44634;54.110;12.138;2023-02-15T06:16:53;53.57;;;21.30;;
16480;SDS011;44634;54.110;12.138;2023-02-15T06:19:21;61.33;;;20.63;;
16480;SDS011;44634;54.110;12.138;2023-02-15T06:21:49;49.93;;;19.80;;
16480;SDS011;44634;54.110;12.138;2023-02-15T06:24:17;53.43;;;21.33;;
16480;SDS011;44634;54.110;12.138;2023-02-15T06:26:44;56.33;;;21.13;;
16480;SDS011;44634;54.110;12.138;2023-02-15T06:29:12;61.03;;;22.37;;
16480;SDS011;44634;54.110;12.138;2023-02-15T06:31:40;63.00;;;22.57;;
16480;SDS011;44634;54.110;12.138;2023-02-15T06:34:09;63.67;;;23.60;;
16480;SDS011;44634;54.110;12.138;2023-02-15T06:36:37;64.63;;;24.20;;
16480;SDS011;44634;54.110;12.138;2023-02-15T06:39:05;63.70;;;21.77;;
16480;SDS011;44634;54.110;12.138;2023-02-15T06:41:33;59.93;;;20.73;;
16480;SDS011;44634;54.110;12.138;2023-02-15T06:44:01;58.63;;;22.10;;
16480;SDS011;44634;54.110;12.138;2023-02-15T06:46:28;56.10;;;19.10;;
16480;SDS011;44634;54.110;12.138;2023-02-15T06:48:56;58.47;;;22.50;;
16480;SDS011;44634;54.110;12.138;2023-02-15T06:51:25;50.03;;;17.50;;
16480;SDS011;44634;54.110;12.138;2023-02-15T06:53:53;46.63;;;18.90;;
16480;SDS011;44634;54.110;12.138;2023-02-15T06:56:21;56.03;;;20.60;;
16480;SDS011;44634;54.110;12.138;2023-02-15T06:58:48;41.77;;;17.03;;
16480;SDS011;44634;54.110;12.138;2023-02-15T07:01:16;58.43;;;22.40;;
16480;SDS011;44634;54.110;12.138;2023-02-15T07:03:44;56.67;;;21.03;;
16480;SDS011;44634;54.110;12.138;2023-02-15T07:06:12;52.67;;;20.23;;
16480;SDS011;44634;54.110;12.138;2023-02-15T07:08:42;65.13;;;22.53;;
16480;SDS011;44634;54.110;12.138;2023-02-15T07:11:09;57.10;;;20.50;;
16480;SDS011;44634;54.110;12.138;2023-02-15T07:13:55;63.43;;;21.80;;
16480;SDS011;44634;54.110;12.138;2023-02-15T07:16:23;66.43;;;22.17;;
16480;SDS011;44634;54.110;12.138;2023-02-15T07:18:50;65.40;;;23.87;;
16480;SDS011;44634;54.110;12.138;2023-02-15T07:21:18;46.13;;;19.37;;
16480;SDS011;44634;54.110;12.138;2023-02-15T07:23:47;62.93;;;22.20;;
16480;SDS011;44634;54.110;12.138;2023-02-15T07:26:15;47.03;;;19.43;;
16480;SDS011;44634;54.110;12.138;2023-02-15T07:28:43;59.07;;;20.97;;
16480;SDS011;44634;54.110;12.138;2023-02-15T07:31:11;61.03;;;20.00;;
16480;SDS011;44634;54.110;12.138;2023-02-15T07:33:38;65.23;;;23.37;;
16480;SDS011;44634;54.110;12.138;2023-02-15T07:36:06;65.50;;;22.53;;
16480;SDS011;44634;54.110;12.138;2023-02-15T07:38:38;62.47;;;21.90;;
16480;SDS011;44634;54.110;12.138;2023-02-15T07:41:10;67.33;;;21.87;;
16480;SDS011;44634;54.110;12.138;2023-02-15T07:43:40;55.77;;;22.23;;
16480;SDS011;44634;54.110;12.138;2023-02-15T07:46:10;63.10;;;22.60;;
16480;SDS011;44634;54.110;12.138;2023-02-15T07:48:39;62.87;;;22.93;;
16480;SDS011;44634;54.110;12.138;2023-02-15T07:51:08;61.83;;;22.40;;
16480;SDS011;44634;54.110;12.138;2023-02-15T07:53:38;60.93;;;22.50;;
16480;SDS011;44634;54.110;12.138;2023-02-15T07:56:07;60.77;;;22.17;;
16480;SDS011;44634;54.110;12.138;2023-02-15T07:58:38;66.07;;;21.50;;
16480;SDS011;44634;54.110;12.138;2023-02-15T08:01:19;62.33;;;22.93;;
16480;SDS011;44634;54.110;12.138;2023-02-15T08:03:48;56.63;;;20.73;;
16480;SDS011;44634;54.110;12.138;2023-02-15T08:06:17;65.50;;;22.23;;
16480;SDS011;44634;54.110;12.138;2023-02-15T08:08:45;69.07;;;21.53;;
16480;SDS011;44634;54.110;12.138;2023-02-15T08:11:18;61.73;;;22.13;;
16480;SDS011;44634;54.110;12.138;2023-02-15T08:13:56;48.40;;;17.33;;
16480;SDS011;44634;54.110;12.138;2023-02-15T08:16:27;59.40;;;23.30;;
16480;SDS011;44634;54.110;12.138;2023-02-15T08:18:58;69.13;;;22.20;;
16480;SDS011;44634;54.110;12.138;2023-02-15T08:21:27;69.53;;;23.07;;
16480;SDS011;44634;54.110;12.138;2023-02-15T08:23:56;65.40;;;24.47;;
16480;SDS011;44634;54.110;12.138;2023-02-15T08:26:27;60.83;;;24.13;;
16480;SDS011;44634;54.110;12.138;2023-02-15T08:28:56;56.53;;;22.47;;
16480;SDS011;44634;54.110;12.138;2023-02-15T08:31:24;66.17;;;25.30;;
16480;SDS011;44634;54.110;12.138;2023-02-15T08:33:53;63.03;;;25.20;;
16480;SDS011;44634;54.110;12.138;2023-02-15T08:36:23;57.70;;;23.83;;
16480;SDS011;44634;54.110;12.138;2023-02-15T08:38:53;56.93;;;23.27;;
16480;SDS011;44634;54.110;12.138;2023-02-15T08:41:21;48.50;;;22.03;;
16480;SDS011;44634;54.110;12.138;2023-02-15T08:43:53;51.57;;;22.10;;
16480;SDS011;44634;54.110;12.138;2023-02-15T08:46:23;41.07;;;19.97;;
16480;SDS011;44634;54.110;12.138;2023-02-15T08:48:53;43.43;;;19.87;;
16480;SDS011;44634;54.110;12.138;2023-02-15T08:51:22;41.40;;;19.57;;
16480;SDS011;44634;54.110;12.138;2023-02-15T08:53:52;36.43;;;17.77;;
16480;SDS011;44634;54.110;12.138;2023-02-15T08:56:22;39.67;;;17.37;;
16480;SDS011;44634;54.110;12.138;2023-02-15T08:58:53;43.13;;;18.83;;
16480;SDS011;44634;54.110;12.138;2023-02-15T09:01:22;42.90;;;20.23;;
16480;SDS011;44634;54.110;12.138;2023-02-15T09:03:58;43.27;;;19.33;;
16480;SDS011;44634;54.110;12.138;2023-02-15T09:06:28;43.33;;;19.80;;
16480;SDS011;44634;54.110;12.138;2023-02-15T09:08:56;38.30;;;16.63;;
16480;SDS011;44634;54.110;12.138;2023-02-15T09:11:24;36.90;;;16.23;;
16480;SDS011;44634;54.110;12.138;2023-02-15T09:13:55;50.03;;;19.23;;
16480;SDS011;44634;54.110;12.138;2023-02-15T09:16:24;44.40;;;18.70;;
16480;SDS011;44634;54.110;12.138;2023-02-15T09:18:55;47.90;;;19.47;;
16480;SDS011;44634;54.110;12.138;2023-02-15T09:21:24;43.77;;;19.73;;
16480;SDS011;44634;54.110;12.138;2023-02-15T09:23:55;40.77;;;17.93;;
16480;SDS011;44634;54.110;12.138;2023-02-15T09:26:24;42.90;;;19.60;;
16480;SDS011;44634;54.110;12.138;2023-02-15T09:28:52;43.70;;;19.97;;
16480;SDS011;44634;54.110;12.138;2023-02-15T09:31:24;47.13;;;18.27;;
16480;SDS011;44634;54.110;12.138;2023-02-15T09:33:53;44.73;;;21.10;;
16480;SDS011;44634;54.110;12.138;2023-02-15T09:36:22;43.23;;;19.00;;
16480;SDS011;44634;54.110;12.138;2023-02-15T09:38:52;48.17;;;18.87;;
16480;SDS011;44634;54.110;12.138;2023-02-15T09:41:31;39.37;;;18.60;;
16480;SDS011;44634;54.110;12.138;2023-02-15T09:44:25;44.23;;;18.77;;
16480;SDS011;44634;54.110;12.138;2023-02-15T09:47:07;37.93;;;16.60;;
16480;SDS011;44634;54.110;12.138;2023-02-15T09:49:49;50.67;;;19.57;;
16480;SDS011;44634;54.110;12.138;2023-02-15T09:52:29;49.87;;;20.53;;
16480;SDS011;44634;54.110;12.138;2023-02-15T09:55:12;50.40;;;23.40;;
16480;SDS011;44634;54.110;12.138;2023-02-15T09:57:58;45.23;;;18.90;;
16480;SDS011;44634;54.110;12.138;2023-02-15T10:00:38;49.87;;;19.77;;
16480;SDS011;44634;54.110;12.138;2023-02-15T10:03:19;52.33;;;21.30;;
16480;SDS011;44634;54.110;12.138;2023-02-15T10:06:05;44.33;;;17.40;;
16480;SDS011;44634;54.110;12.138;2023-02-15T10:08:58;41.40;;;17.50;;
16480;SDS011;44634;54.110;12.138;2023-02-15T10:11:33;45.73;;;20.10;;
16480;SDS011;44634;54.110;12.138;2023-02-15T10:17:09;56.57;;;21.47;;
16480;SDS011;44634;54.110;12.138;2023-02-15T10:19:51;59.97;;;23.53;;
16480;SDS011;44634;54.110;12.138;2023-02-15T10:22:33;56.33;;;20.83;;
16480;SDS011;44634;54.110;12.138;2023-02-15T10:25:20;60.47;;;21.47;;
16480;SDS011;44634;54.110;12.138;2023-02-15T10:28:01;62.30;;;22.63;;
16480;SDS011;44634;54.110;12.138;2023-02-15T10:30:35;46.73;;;19.87;;
16480;SDS011;44634;54.110;12.138;2023-02-15T10:33:12;39.93;;;17.53;;
16480;SDS011;44634;54.110;12.138;2023-02-15T10:35:51;65.07;;;22.97;;
16480;SDS011;44634;54.110;12.138;2023-02-15T10:38:24;58.93;;;21.20;;
16480;SDS011;44634;54.110;12.138;2023-02-15T10:41:03;55.57;;;23.10;;
16480;SDS011;44634;54.110;12.138;2023-02-15T10:43:43;63.57;;;22.27;;
16480;SDS011;44634;54.110;12.138;2023-02-15T10:46:23;68.37;;;23.70;;
16480;SDS011;44634;54.110;12.138;2023-02-15T10:51:58;63.17;;;22.93;;
16480;SDS011;44634;54.110;12.138;2023-02-15T10:54:42;59.50;;;22.23;;
16480;SDS011;44634;54.110;12.138;2023-02-15T10:57:17;62.27;;;22.33;;
16480;SDS011;44634;54.110;12.138;2023-02-15T10:59:54;69.23;;;26.73;;
16480;SDS011;44634;54.110;12.138;2023-02-15T11:02:33;58.73;;;24.50;;
16480;SDS011;44634;54.110;12.138;2023-02-15T11:05:21;63.97;;;27.00;;
16480;SDS011;44634;54.110;12.138;2023-02-15T11:08:03;78.13;;;27.23;;
16480;SDS011;44634;54.110;12.138;2023-02-15T11:10:36;72.37;;;25.80;;
16480;SDS011;44634;54.110;12.138;2023-02-15T11:13:08;76.90;;;27.60;;
16480;SDS011;44634;54.110;12.138;2023-02-15T11:15:39;70.70;;;27.53;;
16480;SDS011;44634;54.110;12.138;2023-02-15T11:18:13;73.87;;;28.47;;
16480;SDS011;44634;54.110;12.138;2023-02-15T11:20:49;70.20;;;27.77;;
16480;SDS011;44634;54.110;12.138;2023-02-15T11:23:23;74.60;;;25.97;;
16480;SDS011;44634;54.110;12.138;2023-02-15T11:25:54;77.63;;;28.20;;
16480;SDS011;44634;54.110;12.138;2023-02-15T11:28:27;70.83;;;25.43;;
16480;SDS011;44634;54.110;12.138;2023-02-15T11:31:00;71.23;;;27.93;;
16480;SDS011;44634;54.110;12.138;2023-02-15T11:33:39;78.73;;;27.57;;
16480;SDS011;44634;54.110;12.138;2023-02-15T11:36:12;68.83;;;26.57;;
16480;SDS011;44634;54.110;12.138;2023-02-15T11:38:44;79.83;;;29.07;;
16480;SDS011;44634;54.110;12.138;2023-02-15T11:41:16;76.20;;;28.87;;
16480;SDS011;44634;54.110;12.138;2023-02-15T11:43:50;65.33;;;27.83;;
16480;SDS011;44634;54.110;12.138;2023-02-15T11:46:24;72.43;;;28.60;;
16480;SDS011;44634;54.110;12.138;2023-02-15T11:48:52;70.83;;;28.70;;
16480;SDS011;44634;54.110;12.138;2023-02-15T11:51:21;74.37;;;28.53;;
16480;SDS011;44634;54.110;12.138;2023-02-15T11:53:51;68.87;;;25.37;;
16480;SDS011;44634;54.110;12.138;2023-02-15T11:56:20;67.03;;;28.93;;
16480;SDS011;44634;54.110;12.138;2023-02-15T11:58:51;77.27;;;27.80;;
16480;SDS011;44634;54.110;12.138;2023-02-15T12:01:24;72.23;;;28.13;;
16480;SDS011;44634;54.110;12.138;2023-02-15T12:03:58;74.27;;;29.83;;
16480;SDS011;44634;54.110;12.138;2023-02-15T12:06:32;76.37;;;28.47;;
16480;SDS011;44634;54.110;12.138;2023-02-15T12:09:05;72.97;;;30.70;;
16480;SDS011;44634;54.110;12.138;2023-02-15T12:11:40;72.50;;;27.70;;
16480;SDS011;44634;54.110;12.138;2023-02-15T12:14:09;65.70;;;28.30;;
16480;SDS011;44634;54.110;12.138;2023-02-15T12:16:42;71.33;;;27.37;;
16480;SDS011;44634;54.110;12.138;2023-02-15T12:19:21;71.47;;;29.33;;
16480;SDS011;44634;54.110;12.138;2023-02-15T12:22:04;83.93;;;29.30;;
16480;SDS011;44634;54.110;12.138;2023-02-15T12:24:38;82.73;;;30.47;;
16480;SDS011;44634;54.110;12.138;2023-02-15T12:27:14;71.83;;;28.27;;
16480;SDS011;44634;54.110;12.138;2023-02-15T12:29:44;75.73;;;27.90;;
16480;SDS011;44634;54.110;12.138;2023-02-15T12:32:17;83.27;;;28.43;;
16480;SDS011;44634;54.110;12.138;2023-02-15T12:34:47;72.47;;;28.33;;
16480;SDS011;44634;54.110;12.138;2023-02-15T12:37:16;75.80;;;27.33;;
16480;SDS011;44634;54.110;12.138;2023-02-15T12:39:52;73.73;;;28.77;;
16480;SDS011;44634;54.110;12.138;2023-02-15T12:42:22;69.57;;;28.23;;
16480;SDS011;44634;54.110;12.138;2023-02-15T12:44:55;79.47;;;28.20;;
16480;SDS011;44634;54.110;12.138;2023-02-15T12:47:24;73.13;;;29.67;;
16480;SDS011;44634;54.110;12.138;2023-02-15T12:52:47;76.13;;;29.27;;
16480;SDS011;44634;54.110;12.138;2023-02-15T12:55:22;65.57;;;25.57;;
16480;SDS011;44634;54.110;12.138;2023-02-15T12:58:05;67.53;;;26.60;;
16480;SDS011;44634;54.110;12.138;2023-02-15T13:00:34;68.83;;;26.03;;
16480;SDS011;44634;54.110;12.138;2023-02-15T13:03:02;67.80;;;27.77;;
16480;SDS011;44634;54.110;12.138;2023-02-15T13:05:32;70.03;;;26.77;;
16480;SDS011;44634;54.110;12.138;2023-02-15T13:08:03;66.67;;;27.97;;
16480;SDS011;44634;54.110;12.138;2023-02-15T13:10:41;63.70;;;24.83;;
16480;SDS011;44634;54.110;12.138;2023-02-15T13:13:19;66.40;;;26.60;;
16480;SDS011;44634;54.110;12.138;2023-02-15T13:15:50;65.23;;;27.07;;
16480;SDS011;44634;54.110;12.138;2023-02-15T13:18:19;69.00;;;24.93;;
16480;SDS011;44634;54.110;12.138;2023-02-15T13:21:01;71.27;;;26.23;;
16480;SDS011;44634;54.110;12.138;2023-02-15T13:23:33;65.07;;;27.30;;
16480;SDS011;44634;54.110;12.138;2023-02-15T13:26:04;65.73;;;25.07;;
16480;SDS011;44634;54.110;12.138;2023-02-15T13:28:37;59.37;;;21.73;;
16480;SDS011;44634;54.110;12.138;2023-02-15T13:31:12;72.13;;;24.67;;
16480;SDS011;44634;54.110;12.138;2023-02-15T13:33:42;61.37;;;23.93;;
16480;SDS011;44634;54.110;12.138;2023-02-15T13:36:15;64.23;;;24.80;;
16480;SDS011;44634;54.110;12.138;2023-02-15T13:38:59;73.40;;;28.83;;
16480;SDS011;44634;54.110;12.138;2023-02-15T13:41:42;67.70;;;26.63;;
16480;SDS011;44634;54.110;12.138;2023-02-15T13:44:20;70.93;;;25.67;;
16480;SDS011;44634;54.110;12.138;2023-02-15T13:47:02;66.90;;;23.50;;
16480;SDS011;44634;54.110;12.138;2023-02-15T13:49:45;67.77;;;26.63;;
16480;SDS011;44634;54.110;12.138;2023-02-15T13:52:22;62.33;;;25.73;;
16480;SDS011;44634;54.110;12.138;2023-02-15T13:55:06;68.57;;;24.87;;
16480;SDS011;44634;54.110;12.138;2023-02-15T13:58:04;74.30;;;25.47;;
16480;SDS011;44634;54.110;12.138;2023-02-15T14:00:52;65.27;;;25.17;;
16480;SDS011;44634;54.110;12.138;2023-02-15T14:03:37;73.80;;;26.07;;
16480;SDS011;44634;54.110;12.138;2023-02-15T14:06:20;67.57;;;25.87;;
16480;SDS011;44634;54.110;12.138;2023-02-15T14:09:05;77.73;;;25.97;;
16480;SDS011;44634;54.110;12.138;2023-02-15T14:11:44;67.37;;;25.40;;
16480;SDS011;44634;54.110;12.138;2023-02-15T14:14:25;61.33;;;24.80;;
16480;SDS011;44634;54.110;12.138;2023-02-15T14:17:08;65.37;;;25.70;;
16480;SDS011;44634;54.110;12.138;2023-02-15T14:19:43;69.53;;;28.20;;
16480;SDS011;44634;54.110;12.138;2023-02-15T14:22:18;60.30;;;25.00;;
16480;SDS011;44634;54.110;12.138;2023-02-15T14:24:57;54.90;;;23.63;;
16480;SDS011;44634;54.110;12.138;2023-02-15T14:27:40;48.40;;;22.00;;
16480;SDS011;44634;54.110;12.138;2023-02-15T14:30:20;51.60;;;24.07;;
16480;SDS011;44634;54.110;12.138;2023-02-15T14:32:51;53.13;;;23.63;;
16480;SDS011;44634;54.110;12.138;2023-02-15T14:35:22;55.37;;;23.13;;
16480;SDS011;44634;54.110;12.138;2023-02-15T14:37:55;54.67;;;23.47;;
16480;SDS011;44634;54.110;12.138;2023-02-15T14:40:33;51.37;;;23.67;;
16480;SDS011;44634;54.110;12.138;2023-02-15T14:43:28;48.03;;;20.47;;
16480;SDS011;44634;54.110;12.138;2023-02-15T14:46:07;43.77;;;20.57;;
16480;SDS011;44634;54.110;12.138;2023-02-15T14:48:45;47.63;;;20.67;;
16480;SDS011;44634;54.110;12.138;2023-02-15T14:57:31;44.33;;;20.13;;
16480;SDS011;44634;54.110;12.138;2023-02-15T15:03:20;48.87;;;21.93;;